createdAt,value
2022-08-08T00:00:54.519Z,1.65
2022-08-08T00:03:28.142Z,1.27
2022-08-08T00:06:33.855Z,1.48
2022-08-08T00:09:27.611Z,1.50
2022-08-08T00:12:07.987Z,1.42
2022-08-08T00:15:08.048Z,1.67
2022-08-08T00:18:02.338Z,1.70
2022-08-08T00:20:50.550Z,1.40
2022-08-08T00:23:55.349Z,1.58
2022-08-08T00:26:34.302Z,2.03
2022-08-08T00:29:17.389Z,1.55
2022-08-08T00:32:20.645Z,1.83
2022-08-08T00:35:18.851Z,2.10
2022-08-08T00:38:02.986Z,1.60
2022-08-08T00:41:10.274Z,3.15
2022-08-08T00:43:45.995Z,1.60
2022-08-08T00:46:16.378Z,1.92
2022-08-08T00:49:01.884Z,1.40
2022-08-08T00:52:23.299Z,2.20
2022-08-08T00:55:16.711Z,1.75
2022-08-08T00:58:30.625Z,1.77
2022-08-08T01:01:37.436Z,1.52
2022-08-08T01:04:30.555Z,1.20
2022-08-08T01:07:15.731Z,3.05
2022-08-08T01:10:21.221Z,1.30
2022-08-08T01:13:14.963Z,1.75
2022-08-08T01:15:59.919Z,1.80
2022-08-08T01:18:54.159Z,1.92
2022-08-08T01:22:13.537Z,1.55
2022-08-08T01:24:54.152Z,1.65
2022-08-08T01:28:00.283Z,2.05
2022-08-08T01:30:59.639Z,1.60
2022-08-08T01:33:54.210Z,2.17
2022-08-08T01:36:40.483Z,1.98
2022-08-08T01:39:34.835Z,1.90
2022-08-08T01:42:15.623Z,1.80
2022-08-08T01:44:55.265Z,1.90
2022-08-08T01:48:16.368Z,2.10
2022-08-08T01:50:48.792Z,2.10
2022-08-08T01:56:47.033Z,1.98
2022-08-08T02:00:01.998Z,1.70
2022-08-08T02:02:49.614Z,2.35
2022-08-08T02:05:23.441Z,2.13
2022-08-08T02:07:53.376Z,2.10
2022-08-08T02:10:29.357Z,2.40
2022-08-08T02:13:52.553Z,1.80
2022-08-08T02:16:35.931Z,1.90
2022-08-08T02:19:41.727Z,2.15
2022-08-08T02:22:33.109Z,2.42
2022-08-08T02:25:20.113Z,2.28
2022-08-08T02:28:07.918Z,2.33
2022-08-08T02:30:50.059Z,2.20
2022-08-08T02:34:09.159Z,2.45
2022-08-08T02:36:51.212Z,2.17
2022-08-08T02:39:42.232Z,2.85
2022-08-08T02:42:47.775Z,2.15
2022-08-08T02:45:54.390Z,1.88
2022-08-08T02:48:56.970Z,2.05
2022-08-08T02:51:30.082Z,2.10
2022-08-08T02:54:19.991Z,2.15
2022-08-08T02:56:59.970Z,4.07
2022-08-08T02:59:57.646Z,2.22
2022-08-08T03:02:50.569Z,2.13
2022-08-08T03:07:58.272Z,2.10
2022-08-08T03:10:53.439Z,2.30
2022-08-08T03:14:15.790Z,2.00
2022-08-08T03:16:35.277Z,2.95
2022-08-08T03:19:12.266Z,2.38
2022-08-08T03:21:54.665Z,2.13
2022-08-08T03:24:25.704Z,2.30
2022-08-08T03:26:58.793Z,2.50
2022-08-08T03:29:55.400Z,2.47
2022-08-08T03:32:41.517Z,2.03
2022-08-08T03:35:10.113Z,2.10
2022-08-08T03:38:54.009Z,2.33
2022-08-08T03:40:30.413Z,2.22
2022-08-08T03:43:16.839Z,2.38
2022-08-08T03:46:05.640Z,2.67
2022-08-08T03:49:10.116Z,3.15
2022-08-08T03:51:40.002Z,2.17
2022-08-08T03:54:06.979Z,2.15
2022-08-08T03:56:35.688Z,2.42
2022-08-08T03:59:02.577Z,2.35
2022-08-08T04:02:33.366Z,2.50
2022-08-08T04:04:30.925Z,2.00
2022-08-08T04:07:01.181Z,2.45
2022-08-08T04:09:57.485Z,2.20
2022-08-08T04:12:15.944Z,2.40
2022-08-08T04:14:45.359Z,2.35
2022-08-08T04:17:22.789Z,2.38
2022-08-08T04:19:59.404Z,2.70
2022-08-08T04:22:30.497Z,2.92
2022-08-08T04:24:57.387Z,2.20
2022-08-08T04:28:01.916Z,2.85
2022-08-08T04:30:19.011Z,2.90
2022-08-08T04:32:48.132Z,2.90
2022-08-08T04:35:20.368Z,2.88
2022-08-08T04:37:50.944Z,2.72
2022-08-08T04:40:18.966Z,2.85
2022-08-08T04:42:57.394Z,3.13
2022-08-08T04:45:27.382Z,2.75
2022-08-08T04:47:57.241Z,2.95
2022-08-08T04:50:32.613Z,2.92
2022-08-08T04:53:05.192Z,2.22
2022-08-08T04:55:47.694Z,2.78
2022-08-08T04:58:22.543Z,2.72
2022-08-08T05:00:49.924Z,2.88
2022-08-08T05:03:18.716Z,2.65
2022-08-08T05:06:12.953Z,2.88
2022-08-08T05:08:46.423Z,2.90
2022-08-08T05:11:24.700Z,3.20
2022-08-08T05:13:54.843Z,2.80
2022-08-08T05:16:49.331Z,3.13
2022-08-08T05:20:05.117Z,2.83
2022-08-08T05:22:01.794Z,2.50
2022-08-08T05:24:32.462Z,2.42
2022-08-08T05:26:59.248Z,3.42
2022-08-08T05:29:29.307Z,3.47
2022-08-08T05:32:03.110Z,2.33
2022-08-08T05:34:53.460Z,3.28
2022-08-08T05:37:49.129Z,3.10
2022-08-08T05:40:16.960Z,2.83
2022-08-08T05:42:51.956Z,2.53
2022-08-08T05:45:25.475Z,3.83
2022-08-08T05:48:08.353Z,2.85
2022-08-08T05:50:36.530Z,2.90
2022-08-08T05:53:53.918Z,3.60
2022-08-08T05:56:09.676Z,3.92
2022-08-08T05:58:56.745Z,3.30
2022-08-08T06:01:56.358Z,3.55
2022-08-08T06:04:22.654Z,3.35
2022-08-08T06:06:52.983Z,3.55
2022-08-08T06:09:58.164Z,3.63
2022-08-08T06:12:14.455Z,3.20
2022-08-08T06:14:47.681Z,3.80
2022-08-08T06:17:19.421Z,3.30
2022-08-08T06:19:50.989Z,4.20
2022-08-08T06:22:33.381Z,4.03
2022-08-08T06:25:02.601Z,3.65
2022-08-08T06:28:06.005Z,3.55
2022-08-08T06:30:35.027Z,3.75
2022-08-08T06:33:09.296Z,3.25
2022-08-08T06:36:08.417Z,3.78
2022-08-08T06:38:28.954Z,4.32
2022-08-08T06:41:04.916Z,3.80
2022-08-08T06:43:35.916Z,3.42
2022-08-08T06:46:08.899Z,3.28
2022-08-08T06:48:39.361Z,3.25
2022-08-08T06:51:11.179Z,3.10
2022-08-08T06:53:39.691Z,3.35
2022-08-08T06:56:08.846Z,3.45
2022-08-08T06:58:36.986Z,4.40
2022-08-08T07:01:11.602Z,3.10
2022-08-08T07:04:35.993Z,3.17
2022-08-08T07:06:56.853Z,2.47
2022-08-08T07:09:41.738Z,2.95
2022-08-08T07:12:25.575Z,3.15
2022-08-08T07:15:06.707Z,2.60
2022-08-08T07:18:34.537Z,3.17
2022-08-08T07:20:51.412Z,2.80
2022-08-08T07:23:57.404Z,3.65
2022-08-08T07:26:35.735Z,2.13
2022-08-08T07:29:05.738Z,2.92
2022-08-08T07:34:09.217Z,2.42
2022-08-08T07:36:48.258Z,2.28
2022-08-08T07:39:29.385Z,1.70
2022-08-08T07:42:05.094Z,1.88
2022-08-08T07:44:40.382Z,2.05
2022-08-08T07:47:08.761Z,2.00
2022-08-08T07:49:40.115Z,3.05
2022-08-08T07:52:13.472Z,1.67
2022-08-08T07:55:05.420Z,1.77
2022-08-08T07:57:50.780Z,1.63
2022-08-08T08:00:22.095Z,2.10
2022-08-08T08:03:09.733Z,2.00
2022-08-08T08:05:50.900Z,2.55
2022-08-08T08:08:20.547Z,2.00
2022-08-08T08:10:52.315Z,1.55
2022-08-08T08:13:42.557Z,1.52
2022-08-08T08:16:28.488Z,1.77
2022-08-08T08:19:01.690Z,1.88
2022-08-08T08:21:57.885Z,1.52
2022-08-08T08:24:30.722Z,1.70
2022-08-08T08:26:59.449Z,1.48
2022-08-08T08:29:28.536Z,1.95
2022-08-08T08:31:57.731Z,1.58
2022-08-08T08:34:32.542Z,1.52
2022-08-08T08:37:07.679Z,1.45
2022-08-08T08:40:00.232Z,1.45
2022-08-08T08:42:29.169Z,1.50
2022-08-08T08:45:10.157Z,1.42
2022-08-08T08:47:54.185Z,1.35
2022-08-08T08:50:33.744Z,1.27
2022-08-08T08:53:27.855Z,1.00
2022-08-08T08:56:01.182Z,1.08
2022-08-08T08:58:43.035Z,1.13
2022-08-08T09:01:23.905Z,1.90
2022-08-08T09:03:51.649Z,1.00
2022-08-08T09:06:28.723Z,1.25
2022-08-08T09:09:25.990Z,1.52
2022-08-08T09:12:07.718Z,2.00
2022-08-08T09:14:35.618Z,1.40
2022-08-08T09:17:15.827Z,1.20
2022-08-08T09:21:56.005Z,1.38
2022-08-08T09:22:34.580Z,0.90
2022-08-08T09:25:02.570Z,1.23
2022-08-08T09:27:56.337Z,1.92
2022-08-08T09:30:19.954Z,1.00
2022-08-08T09:33:54.070Z,1.10
2022-08-08T09:35:49.078Z,0.82
2022-08-08T09:38:53.026Z,1.52
2022-08-08T09:42:15.153Z,0.85
2022-08-08T09:44:42.013Z,1.45
2022-08-08T09:48:02.323Z,1.83
2022-08-08T09:50:04.709Z,0.93
2022-08-08T09:52:59.091Z,1.15
2022-08-08T09:55:31.362Z,1.17
2022-08-08T09:58:20.529Z,1.35
2022-08-08T10:00:57.391Z,1.30
2022-08-08T10:03:27.946Z,0.98
2022-08-08T10:05:58.597Z,1.00
2022-08-08T10:08:26.264Z,0.95
2022-08-08T10:13:35.921Z,1.15
2022-08-08T10:16:05.951Z,1.25
2022-08-08T10:18:35.731Z,1.05
2022-08-08T10:21:22.655Z,1.10
2022-08-08T10:23:57.964Z,1.23
2022-08-08T10:26:52.026Z,1.00
2022-08-08T10:29:56.743Z,0.80
2022-08-08T10:32:37.335Z,1.38
2022-08-08T10:36:06.240Z,1.33
2022-08-08T10:38:05.323Z,0.55
2022-08-08T10:43:05.045Z,1.13
2022-08-08T10:45:56.571Z,0.70
2022-08-08T10:48:34.998Z,0.73
2022-08-08T10:51:13.312Z,1.30
2022-08-08T10:53:57.528Z,0.50
2022-08-08T10:56:35.054Z,0.75
2022-08-08T10:59:10.242Z,0.70
2022-08-08T11:01:46.395Z,0.88
2022-08-08T11:04:16.618Z,0.63
2022-08-08T11:06:49.356Z,0.75
2022-08-08T11:09:19.811Z,0.47
2022-08-08T11:12:04.838Z,0.50
2022-08-08T11:14:49.583Z,0.82
2022-08-08T11:18:00.050Z,1.60
2022-08-08T11:20:10.943Z,0.22
2022-08-08T11:22:41.213Z,0.50
2022-08-08T11:25:14.398Z,0.35
2022-08-08T11:27:47.028Z,0.52
2022-08-08T11:30:20.036Z,0.63
2022-08-08T11:32:56.268Z,0.40
2022-08-08T11:38:38.834Z,0.50
2022-08-08T11:40:56.931Z,0.80
2022-08-08T11:43:38.991Z,0.40
2022-08-08T11:46:18.210Z,0.70
2022-08-08T11:48:47.387Z,1.33
2022-08-08T11:51:38.707Z,0.82
2022-08-08T11:54:32.402Z,0.40
2022-08-08T11:56:57.759Z,0.60
2022-08-08T11:59:58.444Z,1.15
2022-08-08T12:02:32.387Z,0.60
2022-08-08T12:05:07.195Z,1.20
2022-08-08T12:07:56.771Z,1.58
2022-08-08T12:10:30.277Z,0.70
2022-08-08T12:13:06.965Z,1.13
2022-08-08T12:15:42.783Z,0.95
2022-08-08T12:18:25.449Z,1.50
2022-08-08T12:20:59.541Z,0.68
2022-08-08T12:23:43.288Z,0.98
2022-08-08T12:26:28.580Z,1.27
2022-08-08T12:29:40.512Z,0.77
2022-08-08T12:32:19.801Z,0.90
2022-08-08T12:35:01.451Z,0.93
2022-08-08T12:37:40.435Z,1.33
2022-08-08T12:40:22.633Z,1.63
2022-08-08T12:42:51.861Z,1.08
2022-08-08T12:45:54.747Z,1.00
2022-08-08T12:48:37.363Z,1.00
2022-08-08T12:51:10.891Z,0.80
2022-08-08T12:53:59.272Z,1.25
2022-08-08T12:56:37.823Z,1.00
2022-08-08T12:59:36.604Z,1.08
2022-08-08T13:02:22.670Z,0.98
2022-08-08T13:05:00.223Z,1.20
2022-08-08T13:08:02.136Z,0.90
2022-08-08T13:10:33.688Z,0.77
2022-08-08T13:13:05.920Z,0.95
2022-08-08T13:18:10.651Z,0.90
2022-08-08T13:20:49.024Z,1.00
2022-08-08T13:23:36.496Z,1.20
2022-08-08T13:26:14.290Z,1.02
2022-08-08T13:28:42.829Z,1.00
2022-08-08T13:31:16.573Z,1.13
2022-08-08T13:33:47.387Z,1.30
2022-08-08T13:36:25.647Z,1.02
2022-08-08T13:38:54.261Z,1.17
2022-08-08T13:41:22.313Z,1.00
2022-08-08T13:43:49.901Z,1.10
2022-08-08T13:46:27.135Z,0.93
2022-08-08T13:49:12.140Z,1.65
2022-08-08T13:51:56.359Z,1.33
2022-08-08T13:54:29.537Z,0.85
2022-08-08T13:57:08.769Z,0.65
2022-08-08T13:59:49.330Z,1.02
2022-08-08T14:02:20.348Z,0.90
2022-08-08T14:04:54.576Z,1.33
2022-08-08T14:07:30.511Z,0.60
2022-08-08T14:10:11.920Z,0.80
2022-08-08T14:12:43.851Z,0.70
2022-08-08T14:15:31.505Z,1.15
2022-08-08T14:18:35.973Z,0.70
2022-08-08T14:21:08.238Z,0.75
2022-08-08T14:24:04.269Z,1.00
2022-08-08T14:26:33.109Z,1.33
2022-08-08T14:29:01.485Z,1.48
2022-08-08T14:32:05.852Z,0.95
2022-08-08T14:34:23.293Z,1.70
2022-08-08T14:36:54.858Z,1.10
2022-08-08T14:39:24.997Z,1.48
2022-08-08T14:42:09.461Z,0.80
2022-08-08T14:44:39.509Z,1.10
2022-08-08T14:47:20.869Z,0.57
2022-08-08T14:50:02.467Z,0.93
2022-08-08T14:52:46.772Z,1.67
2022-08-08T14:55:14.078Z,0.73
2022-08-08T14:58:02.461Z,1.00
2022-08-08T15:00:34.843Z,0.88
2022-08-08T15:03:14.512Z,1.80
2022-08-08T15:05:54.296Z,0.40
2022-08-08T15:08:35.689Z,0.80
2022-08-08T15:11:11.564Z,0.75
2022-08-08T15:14:01.819Z,1.77
2022-08-08T15:16:27.866Z,0.80
2022-08-08T15:18:55.068Z,0.75
2022-08-08T15:21:22.161Z,0.85
2022-08-08T15:23:50.851Z,0.98
2022-08-08T15:26:25.501Z,0.60
2022-08-08T15:28:54.192Z,1.48
2022-08-08T15:31:49.027Z,0.93
2022-08-08T15:34:18.761Z,0.82
2022-08-08T15:36:57.194Z,0.85
2022-08-08T15:39:23.931Z,0.85
2022-08-08T15:41:52.735Z,0.80
2022-08-08T15:44:20.930Z,0.63
2022-08-08T15:46:50.663Z,0.68
2022-08-08T15:49:20.550Z,0.85
2022-08-08T15:51:49.885Z,1.15
2022-08-08T15:54:37.263Z,0.90
2022-08-08T15:57:04.344Z,0.60
2022-08-08T16:00:10.888Z,0.70
2022-08-08T16:02:30.394Z,0.65
2022-08-08T16:04:58.984Z,1.05
2022-08-08T16:07:39.117Z,1.13
2022-08-08T16:13:21.333Z,0.85
2022-08-08T16:13:33.530Z,1.40
2022-08-08T16:15:58.198Z,0.80
2022-08-08T16:18:28.042Z,1.77
2022-08-08T16:21:00.415Z,1.10
2022-08-08T16:23:32.478Z,0.82
2022-08-08T16:26:04.079Z,1.58
2022-08-08T16:28:34.997Z,0.80
2022-08-08T16:31:04.656Z,1.05
2022-08-08T16:33:38.182Z,0.60
2022-08-08T16:36:08.917Z,1.10
2022-08-08T16:38:40.565Z,0.85
2022-08-08T16:41:20.593Z,0.90
2022-08-08T16:43:51.432Z,0.77
2022-08-08T16:46:36.356Z,1.58
2022-08-08T16:49:07.749Z,1.20
2022-08-08T16:55:03.429Z,1.25
2022-08-08T16:55:06.175Z,0.80
2022-08-08T16:57:43.512Z,1.10
2022-08-08T16:59:58.910Z,0.80
2022-08-08T17:02:32.945Z,0.80
2022-08-08T17:05:06.426Z,1.25
2022-08-08T17:07:33.155Z,1.77
2022-08-08T17:10:05.128Z,0.80
2022-08-08T17:12:34.718Z,1.25
2022-08-08T17:15:17.876Z,2.22
2022-08-08T17:18:03.514Z,1.17
2022-08-08T17:20:39.821Z,1.00
2022-08-08T17:23:17.856Z,1.35
2022-08-08T17:25:56.144Z,1.67
2022-08-08T17:28:34.452Z,2.40
2022-08-08T17:31:44.768Z,1.00
2022-08-08T17:34:54.367Z,1.45
2022-08-08T17:37:00.930Z,1.38
2022-08-08T17:40:03.244Z,1.00
2022-08-08T17:42:12.499Z,1.33
2022-08-08T17:44:39.800Z,1.63
2022-08-08T17:47:11.044Z,1.23
2022-08-08T17:49:43.381Z,1.10
2022-08-08T17:52:10.479Z,1.50
2022-08-08T17:54:37.560Z,1.60
2022-08-08T17:57:05.941Z,1.52
2022-08-08T17:59:36.483Z,1.38
2022-08-08T18:02:16.355Z,0.90
2022-08-08T18:04:50.412Z,1.58
2022-08-08T18:08:02.356Z,1.20
2022-08-08T18:10:07.329Z,1.20
2022-08-08T18:12:34.195Z,1.30
2022-08-08T18:15:01.778Z,1.17
2022-08-08T18:18:05.472Z,1.00
2022-08-08T18:20:36.977Z,1.38
2022-08-08T18:23:02.053Z,1.05
2022-08-08T18:25:37.482Z,1.27
2022-08-08T18:28:04.820Z,1.35
2022-08-08T18:30:33.092Z,1.30
2022-08-08T18:33:00.228Z,2.22
2022-08-08T18:35:34.107Z,1.52
2022-08-08T18:38:17.466Z,1.27
2022-08-08T18:40:51.070Z,3.05
2022-08-08T18:43:21.006Z,2.25
2022-08-08T18:46:56.559Z,2.85
2022-08-08T18:48:36.464Z,2.33
2022-08-08T18:51:03.192Z,2.13
2022-08-08T18:54:00.565Z,1.33
2022-08-08T18:56:24.999Z,1.45
2022-08-08T18:58:53.629Z,1.48
2022-08-08T19:02:25.541Z,1.70
2022-08-08T19:04:10.651Z,1.90
2022-08-08T19:06:38.017Z,1.40
2022-08-08T19:09:13.233Z,1.70
2022-08-08T19:11:46.569Z,2.13
2022-08-08T19:14:20.765Z,1.80
2022-08-08T19:16:48.257Z,1.60
2022-08-08T19:19:15.911Z,2.28
2022-08-08T19:21:49.455Z,1.88
2022-08-08T19:24:39.186Z,1.42
2022-08-08T19:27:04.738Z,1.60
2022-08-08T19:29:35.810Z,1.70
2022-08-08T19:32:12.689Z,1.60
2022-08-08T19:34:41.771Z,1.88
2022-08-08T19:37:16.369Z,2.25
2022-08-08T19:39:45.714Z,1.58
2022-08-08T19:42:13.560Z,1.40
2022-08-08T19:44:42.897Z,2.00
2022-08-08T19:47:12.912Z,1.85
2022-08-08T19:49:39.596Z,2.20
2022-08-08T19:52:13.348Z,1.97
2022-08-08T19:54:40.390Z,1.83
2022-08-08T19:57:14.507Z,2.10
2022-08-08T20:02:11.831Z,3.33
2022-08-08T20:04:39.030Z,3.83
2022-08-08T20:08:27.947Z,1.80
2022-08-08T20:09:58.501Z,1.90
2022-08-08T20:12:32.731Z,2.40
2022-08-08T20:15:09.781Z,2.13
2022-08-08T20:17:43.299Z,2.45
2022-08-08T20:20:12.744Z,2.75
2022-08-08T20:22:48.654Z,2.97
2022-08-08T20:25:20.468Z,2.40
2022-08-08T20:27:50.495Z,1.70
2022-08-08T20:30:52.822Z,2.53
2022-08-08T20:33:20.011Z,4.25
2022-08-08T20:35:58.369Z,3.60
2022-08-08T20:38:32.686Z,2.88
2022-08-08T20:41:16.948Z,3.38
2022-08-08T20:43:48.149Z,2.17
2022-08-08T20:46:15.750Z,2.20
2022-08-08T20:48:44.045Z,2.28
2022-08-08T20:51:10.994Z,2.10
2022-08-08T20:53:59.324Z,2.50
2022-08-08T20:56:35.781Z,2.30
2022-08-08T20:59:05.909Z,2.92
2022-08-08T21:02:05.672Z,2.27
2022-08-08T21:04:23.285Z,2.80
2022-08-08T21:06:53.383Z,2.90
2022-08-08T21:09:21.494Z,2.63
2022-08-08T21:11:51.394Z,2.60
2022-08-08T21:14:33.376Z,2.50
2022-08-08T21:19:44.062Z,2.40
2022-08-08T21:22:11.653Z,2.17
2022-08-08T21:24:39.590Z,2.63
2022-08-08T21:27:15.242Z,3.45
2022-08-08T21:30:03.926Z,2.45
2022-08-08T21:32:31.562Z,3.28
2022-08-08T21:36:13.911Z,4.18
2022-08-08T21:37:55.011Z,4.13
2022-08-08T21:40:30.983Z,3.42
2022-08-08T21:42:58.586Z,3.30
2022-08-08T21:48:01.494Z,3.85
2022-08-08T21:48:19.991Z,3.83
2022-08-08T21:50:48.315Z,3.08
2022-08-08T21:54:31.087Z,3.65
2022-08-08T21:56:19.421Z,2.83
2022-08-08T21:58:55.295Z,3.47
2022-08-08T22:01:39.264Z,3.05
2022-08-08T22:04:07.501Z,3.60
2022-08-08T22:06:38.113Z,4.57
2022-08-08T22:09:09.022Z,3.20
2022-08-08T22:11:59.309Z,3.55
2022-08-08T22:14:26.954Z,3.53
2022-08-08T22:16:56.287Z,4.10
2022-08-08T22:19:24.010Z,4.53
2022-08-08T22:21:52.835Z,4.00
2022-08-08T22:24:28.385Z,3.88
2022-08-08T22:27:01.435Z,3.95
2022-08-08T22:29:59.321Z,4.10
2022-08-08T22:32:18.753Z,5.45
2022-08-08T22:34:50.697Z,4.40
2022-08-08T22:37:48.939Z,4.45
2022-08-08T22:40:16.463Z,4.63
2022-08-08T22:42:47.400Z,5.53
2022-08-08T22:45:15.699Z,4.47
2022-08-08T22:47:48.758Z,5.13
2022-08-08T22:50:26.006Z,5.50
2022-08-08T22:54:29.150Z,6.13
2022-08-08T22:55:59.389Z,6.43
2022-08-08T22:58:34.695Z,6.35
2022-08-08T23:02:01.153Z,5.55
2022-08-08T23:03:55.904Z,6.35
2022-08-08T23:06:24.992Z,5.95
2022-08-08T23:08:55.945Z,5.28
2022-08-08T23:11:30.856Z,6.18
2022-08-08T23:14:19.085Z,5.20
2022-08-08T23:16:54.892Z,5.38
2022-08-08T23:19:27.463Z,5.50
2022-08-08T23:21:57.859Z,5.95
2022-08-08T23:24:24.520Z,5.60
2022-08-08T23:26:55.407Z,5.57
2022-08-08T23:29:24.795Z,5.28
2022-08-08T23:31:51.871Z,5.25
2022-08-08T23:34:19.495Z,4.63
2022-08-08T23:36:47.928Z,5.63
2022-08-08T23:39:15.615Z,5.18
2022-08-08T23:41:46.752Z,4.72
2022-08-08T23:44:18.638Z,5.18
2022-08-08T23:49:06.766Z,5.60
2022-08-08T23:49:33.794Z,5.70
2022-08-08T23:52:04.666Z,5.07
2022-08-08T23:54:41.892Z,5.85
2022-08-08T23:57:26.639Z,4.82
